Time;durP1;ratioP1;P1;durP2;ratioP2;P2;SDS_P1;SDS_P2;PMS_P1;PMS_P2;Temp;Humidity;BMP_temperature;BMP_pressure;BME280_temperature;BME280_humidity;BME280_pressure;Samples;Min_cycle;Max_cycle;Signal;HPM_P1;HPM_P2
2022/10/29 00:01:01;;;;;;;21.15;9.27;;;;;;;14.63;100.00;101952.53;6159414;23;20350;-90
2022/10/29 00:03:52;;;;;;;27.75;9.70;;;;;;;14.57;100.00;101946.00;6187418;23;20028;-90
2022/10/29 00:06:23;;;;;;;25.45;9.85;;;;;;;14.52;100.00;101949.38;6186544;23;20041;-91
2022/10/29 00:09:01;;;;;;;29.67;10.33;;;;;;;14.45;100.00;101940.38;6161505;23;20012;-91
2022/10/29 00:11:29;;;;;;;22.40;9.93;;;;;;;14.44;100.00;101941.44;6160647;23;20033;-90
2022/10/29 00:14:06;;;;;;;25.35;9.88;;;;;;;14.44;100.00;101938.72;6161466;23;20013;-90
2022/10/29 00:16:38;;;;;;;27.70;10.23;;;;;;;14.39;100.00;101933.03;6160845;23;20096;-91
2022/10/29 00:19:04;;;;;;;25.27;9.77;;;;;;;14.32;100.00;101934.94;6160469;23;20019;-90
2022/10/29 00:21:50;;;;;;;31.17;10.03;;;;;;;14.27;100.00;101935.59;6160626;23;20067;-90
2022/10/29 00:24:23;;;;;;;20.00;9.65;;;;;;;14.19;100.00;101944.84;6160537;23;20067;-90
2022/10/29 00:26:53;;;;;;;25.88;10.30;;;;;;;14.16;100.00;101944.44;6135385;23;20009;-90
2022/10/29 00:29:37;;;;;;;;;;;;;;;;;;;;;
2022/10/29 00:32:08;;;;;;;23.55;10.38;;;;;;;14.14;100.00;101947.41;6163411;23;20084;-90
2022/10/29 00:34:35;;;;;;;24.20;10.77;;;;;;;14.16;100.00;101950.75;6160814;23;20009;-90
2022/10/29 00:37:07;;;;;;;22.15;10.02;;;;;;;14.12;100.00;101944.03;6160156;23;20005;-90
2022/10/29 00:39:37;;;;;;;22.30;10.20;;;;;;;14.14;100.00;101952.84;6159679;23;20012;-89
2022/10/29 00:42:18;;;;;;;23.88;10.35;;;;;;;14.09;100.00;101936.25;6160530;23;20017;-90
2022/10/29 00:44:50;;;;;;;23.77;10.57;;;;;;;14.04;100.00;101936.91;6186350;23;20009;-90
2022/10/29 00:47:34;;;;;;;24.47;10.27;;;;;;;14.00;100.00;101957.47;6160836;23;20427;-90
2022/10/29 00:50:07;;;;;;;25.63;10.90;;;;;;;13.99;100.00;101955.78;6160544;23;20005;-90
2022/10/29 00:52:40;;;;;;;28.13;10.20;;;;;;;13.95;100.00;101965.47;6159400;23;20009;-90
2022/10/29 00:55:19;;;;;;;;;;;;;;;;;;;;;
2022/10/29 00:57:51;;;;;;;21.80;10.00;;;;;;;13.91;100.00;101955.19;6187051;23;20092;-91
2022/10/29 01:00:22;;;;;;;22.00;10.80;;;;;;;13.89;100.00;101957.28;6161242;23;20328;-90
2022/10/29 01:02:50;;;;;;;21.92;10.63;;;;;;;13.77;100.00;101960.63;6160205;23;20012;-91
2022/10/29 01:05:19;;;;;;;30.35;11.68;;;;;;;13.75;100.00;101957.28;6160712;23;20351;-84
2022/10/29 01:07:45;;;;;;;20.83;10.85;;;;;;;13.69;100.00;101948.03;6186879;23;20462;-84
2022/10/29 01:10:11;;;;;;;24.30;10.63;;;;;;;13.64;100.00;101950.56;6160096;23;20073;-85
2022/10/29 01:12:59;;;;;;;21.85;10.63;;;;;;;13.59;100.00;101935.88;6160396;23;20016;-84
2022/10/29 01:15:47;;;;;;;20.17;9.85;;;;;;;13.59;100.00;101944.06;6161036;23;20024;-84
2022/10/29 01:18:23;;;;;;;26.73;10.18;;;;;;;13.55;100.00;101935.44;6160492;23;20031;-85
2022/10/29 01:21:28;;;;;;;21.77;10.73;;;;;;;13.55;100.00;101929.16;6159928;23;20013;-84
2022/10/29 01:24:19;;;;;;;19.97;11.13;;;;;;;13.56;100.00;101920.75;6159830;23;20408;-84
2022/10/29 01:26:57;;;;;;;22.27;11.38;;;;;;;13.56;100.00;101928.94;6160064;23;20004;-84
2022/10/29 01:29:29;;;;;;;24.27;10.55;;;;;;;13.51;100.00;101926.03;6159666;23;20011;-84
2022/10/29 01:31:54;;;;;;;22.48;11.23;;;;;;;13.47;100.00;101922.84;6159953;23;20055;-84
2022/10/29 01:34:28;;;;;;;23.43;10.27;;;;;;;13.44;100.00;101925.16;6160280;23;20343;-84
2022/10/29 01:37:20;;;;;;;20.55;10.00;;;;;;;13.41;100.00;101926.41;6160683;23;20411;-84
2022/10/29 01:39:57;;;;;;;25.03;11.07;;;;;;;13.38;100.00;101920.56;6143948;23;20036;-84
2022/10/29 01:42:37;;;;;;;24.25;12.15;;;;;;;13.36;100.00;101914.44;6159753;23;20078;-84
2022/10/29 01:45:08;;;;;;;24.35;11.45;;;;;;;13.31;100.00;101913.16;6160236;23;20005;-84
2022/10/29 01:47:52;;;;;;;19.65;10.93;;;;;;;13.26;100.00;101910.22;6185926;23;20004;-84
2022/10/29 01:50:22;;;;;;;26.13;10.75;;;;;;;13.19;100.00;101897.66;6159423;23;20001;-84
2022/10/29 01:52:49;;;;;;;19.53;10.83;;;;;;;13.16;100.00;101886.09;6159848;23;20007;-85
2022/10/29 01:55:30;;;;;;;24.00;11.48;;;;;;;13.16;100.00;101882.53;6159504;23;20001;-84
2022/10/29 01:57:56;;;;;;;20.92;11.23;;;;;;;13.16;100.00;101888.00;6160727;23;20009;-84
2022/10/29 02:00:22;;;;;;;24.90;11.63;;;;;;;13.16;100.00;101885.25;6159319;23;20305;-84
2022/10/29 02:03:00;;;;;;;21.25;11.10;;;;;;;13.17;100.00;101886.94;6135788;23;20008;-84
2022/10/29 02:05:28;;;;;;;23.73;11.73;;;;;;;13.17;100.00;101889.69;6186268;23;20100;-84
2022/10/29 02:08:18;;;;;;;20.90;11.43;;;;;;;13.18;100.00;101888.59;6186043;23;20139;-84
2022/10/29 02:10:43;;;;;;;22.65;10.63;;;;;;;13.16;100.00;101902.44;6144201;23;20032;-84
2022/10/29 02:13:13;;;;;;;28.83;10.90;;;;;;;13.16;100.00;101901.63;6159778;23;20008;-84
2022/10/29 02:15:46;;;;;;;20.85;10.25;;;;;;;13.15;100.00;101891.75;6185648;23;20000;-84
2022/10/29 02:18:12;;;;;;;22.27;10.67;;;;;;;13.12;100.00;101881.28;6160782;23;20096;-84
2022/10/29 02:20:42;;;;;;;23.88;10.85;;;;;;;13.09;100.00;101876.25;6134713;23;20428;-84
2022/10/29 02:23:08;;;;;;;19.83;11.13;;;;;;;13.10;100.00;101876.03;6159651;23;20012;-84
2022/10/29 02:25:33;;;;;;;23.08;11.48;;;;;;;13.07;100.00;101878.34;6159287;23;20000;-84
2022/10/29 02:27:59;;;;;;;19.93;10.43;;;;;;;13.05;100.00;101873.09;6159549;23;20052;-84
2022/10/29 02:30:24;;;;;;;32.30;12.02;;;;;;;13.06;100.00;101865.75;6185719;23;20331;-84
2022/10/29 02:32:49;;;;;;;25.93;11.57;;;;;;;13.04;100.00;101863.25;6159941;23;20308;-84
2022/10/29 02:35:15;;;;;;;23.30;10.87;;;;;;;13.03;100.00;101858.00;6159355;23;20374;-84
2022/10/29 02:37:41;;;;;;;20.90;10.13;;;;;;;13.03;100.00;101849.81;6135051;23;20009;-84
2022/10/29 02:40:07;;;;;;;22.35;10.60;;;;;;;12.99;100.00;101852.09;6159534;23;20119;-84
2022/10/29 02:42:33;;;;;;;22.85;10.50;;;;;;;12.97;100.00;101859.66;6185579;23;20001;-84
2022/10/29 02:44:58;;;;;;;21.30;10.23;;;;;;;12.94;100.00;101854.63;6134792;23;20436;-84
2022/10/29 02:47:23;;;;;;;20.13;10.17;;;;;;;12.92;100.00;101848.56;6110823;23;20017;-84
2022/10/29 02:49:49;;;;;;;21.20;10.77;;;;;;;12.92;100.00;101859.47;6159552;23;20009;-84
2022/10/29 02:52:14;;;;;;;29.17;11.17;;;;;;;12.88;100.00;101850.84;6134705;23;20005;-84
2022/10/29 02:54:40;;;;;;;23.63;10.97;;;;;;;12.88;100.00;101850.84;6159530;23;20001;-84
2022/10/29 02:57:05;;;;;;;17.47;9.50;;;;;;;12.88;100.00;101844.56;6160589;23;20012;-84
2022/10/29 02:59:31;;;;;;;19.60;9.38;;;;;;;12.87;100.00;101853.78;6185910;23;20084;-84
2022/10/29 03:01:56;;;;;;;21.47;9.73;;;;;;;12.85;100.00;101850.44;6159547;23;20323;-84
2022/10/29 03:04:22;;;;;;;16.23;8.70;;;;;;;12.84;100.00;101837.84;6160535;23;20025;-84
2022/10/29 03:06:47;;;;;;;16.43;8.30;;;;;;;12.82;100.00;101835.34;6160558;23;20041;-84
2022/10/29 03:09:12;;;;;;;17.23;8.93;;;;;;;12.80;100.00;101830.09;6162213;23;19997;-84
2022/10/29 03:11:38;;;;;;;21.70;9.13;;;;;;;12.80;100.00;101837.44;6161374;23;20060;-84
2022/10/29 03:14:03;;;;;;;21.40;10.00;;;;;;;12.77;100.00;101844.13;6137017;23;20036;-84
2022/10/29 03:16:29;;;;;;;23.97;9.90;;;;;;;12.76;100.00;101837.00;6161229;23;20005;-84
2022/10/29 03:18:54;;;;;;;23.77;10.00;;;;;;;12.75;100.00;101831.75;6136641;23;20433;-84
2022/10/29 03:21:19;;;;;;;19.92;10.88;;;;;;;12.72;100.00;101824.81;6160902;23;20011;-84
2022/10/29 03:23:45;;;;;;;22.30;10.73;;;;;;;12.70;100.00;101834.25;6137686;23;20032;-84
2022/10/29 03:26:10;;;;;;;23.80;9.53;;;;;;;12.66;100.00;101831.09;6137046;23;20015;-84
2022/10/29 03:28:36;;;;;;;21.93;9.93;;;;;;;12.62;100.00;101830.69;6136611;23;20423;-84
2022/10/29 03:31:01;;;;;;;21.23;10.90;;;;;;;12.62;100.00;101819.78;6161750;23;20001;-84
2022/10/29 03:33:27;;;;;;;18.42;9.52;;;;;;;12.64;100.00;101814.97;6161230;23;20009;-84
2022/10/29 03:36:01;;;;;;;16.60;9.43;;;;;;;12.65;100.00;101829.41;6160683;23;20315;-84
2022/10/29 03:38:26;;;;;;;23.45;9.55;;;;;;;12.65;100.00;101818.53;6187423;23;20133;-83
2022/10/29 03:40:52;;;;;;;23.35;10.23;;;;;;;12.68;100.00;101809.09;6161096;23;20041;-84
2022/10/29 03:43:18;;;;;;;21.03;10.10;;;;;;;12.73;100.00;101815.63;6136486;23;20046;-84
2022/10/29 03:45:49;;;;;;;19.48;10.18;;;;;;;12.81;100.00;101817.31;6187318;23;20079;-84
2022/10/29 03:48:14;;;;;;;17.52;9.45;;;;;;;12.85;100.00;101804.13;6187281;23;20005;-84
2022/10/29 03:50:39;;;;;;;25.77;9.27;;;;;;;12.90;100.00;101810.63;6137022;23;20307;-84
2022/10/29 03:53:05;;;;;;;18.10;9.30;;;;;;;12.92;100.00;101811.25;6136715;23;20044;-84
2022/10/29 03:55:30;;;;;;;16.87;9.17;;;;;;;12.91;100.00;101806.84;6112846;23;20066;-84
2022/10/29 03:57:56;;;;;;;22.33;9.47;;;;;;;12.89;100.00;101799.91;6161556;23;20005;-84
2022/10/29 04:00:21;;;;;;;21.00;9.63;;;;;;;12.88;100.00;101790.91;6136975;23;20391;-84
2022/10/29 04:02:46;;;;;;;22.33;9.90;;;;;;;12.87;100.00;101785.69;6112522;23;20012;-84
2022/10/29 04:05:12;;;;;;;20.57;9.83;;;;;;;12.87;100.00;101781.06;6160398;23;20305;-84
2022/10/29 04:07:37;;;;;;;20.83;10.07;;;;;;;12.87;100.00;101782.97;6111824;23;20011;-84
2022/10/29 04:10:03;;;;;;;18.40;10.60;;;;;;;12.86;100.00;101786.72;6160736;23;20427;-84
2022/10/29 04:12:29;;;;;;;24.03;10.10;;;;;;;12.87;100.00;101786.50;6136718;23;20009;-84
2022/10/29 04:14:54;;;;;;;22.70;10.07;;;;;;;12.91;100.00;101784.22;6161272;23;20357;-84
2022/10/29 04:17:19;;;;;;;20.33;10.53;;;;;;;12.93;100.00;101787.56;6160482;23;20033;-84
2022/10/29 04:19:45;;;;;;;17.90;10.17;;;;;;;12.93;100.00;101774.81;6135746;23;20001;-84
2022/10/29 04:22:10;;;;;;;20.40;10.30;;;;;;;12.99;100.00;101770.38;6136072;23;20047;-84
2022/10/29 04:24:36;;;;;;;22.67;9.70;;;;;;;12.99;100.00;101765.78;6161232;23;20009;-84
2022/10/29 04:27:01;;;;;;;21.55;10.13;;;;;;;13.02;100.00;101772.72;6160264;23;20103;-84
2022/10/29 04:29:26;;;;;;;23.40;10.77;;;;;;;13.04;100.00;101772.50;6135463;23;20015;-84
2022/10/29 04:31:52;;;;;;;24.27;10.43;;;;;;;13.05;100.00;101769.56;6187233;23;20008;-84
2022/10/29 04:34:17;;;;;;;23.87;10.37;;;;;;;13.07;100.00;101766.63;6160507;23;20036;-84
2022/10/29 04:36:43;;;;;;;23.10;11.20;;;;;;;13.05;100.00;101760.53;6136841;23;20028;-84
2022/10/29 04:39:08;;;;;;;26.30;10.97;;;;;;;13.03;100.00;101760.75;6135904;23;20001;-84
2022/10/29 04:41:34;;;;;;;22.23;11.17;;;;;;;13.02;100.00;101755.50;6160415;23;20243;-84
2022/10/29 04:44:00;;;;;;;24.73;10.90;;;;;;;13.02;100.00;101764.56;6135530;23;20041;-84
2022/10/29 04:46:26;;;;;;;24.08;11.43;;;;;;;13.01;100.00;101759.28;6160711;23;20015;-84
2022/10/29 04:48:51;;;;;;;24.33;11.73;;;;;;;12.99;100.00;101771.25;6186629;23;20036;-84
2022/10/29 04:51:22;;;;;;;24.43;11.27;;;;;;;13.01;100.00;101765.59;6136138;23;20412;-84
2022/10/29 04:53:47;;;;;;;23.35;11.35;;;;;;;12.99;100.00;101764.94;6161302;23;20009;-84
2022/10/29 04:56:13;;;;;;;24.63;11.47;;;;;;;12.99;100.00;101760.34;6135678;23;20439;-84
2022/10/29 04:58:38;;;;;;;29.00;11.73;;;;;;;13.01;100.00;101757.41;6161300;23;20004;-85
2022/10/29 05:01:04;;;;;;;27.57;12.03;;;;;;;13.02;100.00;101758.25;6160287;23;20015;-84
2022/10/29 05:03:33;;;;;;;29.02;12.45;;;;;;;13.02;100.00;101761.81;6160550;23;20005;-84
2022/10/29 05:06:04;;;;;;;23.27;11.30;;;;;;;12.98;100.00;101757.84;6135521;23;20013;-84
2022/10/29 05:08:30;;;;;;;27.17;11.97;;;;;;;12.95;100.00;101760.97;6160333;23;20420;-84
2022/10/29 05:10:55;;;;;;;27.30;11.40;;;;;;;12.92;100.00;101753.22;6186572;23;20054;-84
2022/10/29 05:13:21;;;;;;;23.43;10.97;;;;;;;12.89;100.00;101751.75;6159749;23;20012;-84
2022/10/29 05:15:52;;;;;;;34.70;11.40;;;;;;;12.90;100.00;101753.44;6160132;23;20319;-85
2022/10/29 05:18:17;;;;;;;20.95;11.23;;;;;;;12.93;100.00;101755.75;6160488;23;20009;-84
2022/10/29 05:20:43;;;;;;;30.30;12.50;;;;;;;12.95;100.00;101742.75;6154974;23;20036;-84
2022/10/29 05:23:10;;;;;;;26.00;11.30;;;;;;;12.99;100.00;101751.31;6155195;23;20006;-85
2022/10/29 05:25:37;;;;;;;23.30;11.37;;;;;;;13.02;100.00;101758.25;6154798;23;20005;-84
2022/10/29 05:28:05;;;;;;;26.27;12.55;;;;;;;13.05;100.00;101746.91;6155066;23;19997;-84
2022/10/29 05:30:32;;;;;;;27.17;12.05;;;;;;;13.07;100.00;101739.41;6155281;23;20005;-84
2022/10/29 05:32:57;;;;;;;27.85;11.93;;;;;;;13.10;100.00;101737.06;6130498;23;20392;-84
2022/10/29 05:35:23;;;;;;;23.77;11.33;;;;;;;13.13;100.00;101742.09;6155026;23;20012;-84
2022/10/29 05:37:53;;;;;;;23.25;11.32;;;;;;;13.20;100.00;101730.34;6155929;23;20273;-84
2022/10/29 05:40:20;;;;;;;25.92;11.18;;;;;;;13.25;100.00;101734.13;6154981;23;20005;-84
2022/10/29 05:42:45;;;;;;;24.70;11.60;;;;;;;13.26;100.00;101733.09;6130342;23;20019;-84
2022/10/29 05:45:11;;;;;;;21.52;11.50;;;;;;;13.28;100.00;101733.69;6157183;23;20069;-86
2022/10/29 05:47:58;;;;;;;22.25;11.82;;;;;;;13.28;100.00;101720.06;5111835;27;20372;-85
2022/10/29 05:50:25;;;;;;;21.67;11.10;;;;;;;13.27;100.00;101728.47;5110296;27;20395;-85
2022/10/29 05:52:56;;;;;;;28.05;11.68;;;;;;;13.25;100.00;101716.94;5111108;28;20472;-85
2022/10/29 05:55:22;;;;;;;31.10;12.63;;;;;;;13.25;100.00;101714.22;5110055;28;20107;-85
2022/10/29 05:57:48;;;;;;;31.08;13.13;;;;;;;13.28;100.00;101709.16;5110436;28;20027;-84
2022/10/29 06:00:13;;;;;;;27.90;12.20;;;;;;;13.31;100.00;101722.38;5110218;28;20520;-83
2022/10/29 06:02:42;;;;;;;28.15;13.00;;;;;;;13.34;100.00;101710.25;5092957;28;20035;-83
2022/10/29 06:05:07;;;;;;;23.83;12.02;;;;;;;13.40;100.00;101711.28;5109862;28;20089;-84
2022/10/29 06:07:33;;;;;;;26.70;12.67;;;;;;;13.44;100.00;101710.63;5109845;28;20479;-86
2022/10/29 06:09:58;;;;;;;27.77;12.73;;;;;;;13.47;100.00;101712.94;5109889;28;20059;-85
2022/10/29 06:12:24;;;;;;;27.33;12.73;;;;;;;13.53;100.00;101721.31;5126551;28;20111;-87
2022/10/29 06:14:49;;;;;;;28.83;12.88;;;;;;;13.54;100.00;101726.56;5092343;28;20028;-86
2022/10/29 06:17:14;;;;;;;24.40;12.73;;;;;;;13.55;100.00;101743.75;5109698;28;20444;-85
2022/10/29 06:19:42;;;;;;;29.80;13.60;;;;;;;13.57;100.00;101744.38;5109433;28;20332;-86
2022/10/29 06:22:08;;;;;;;30.75;13.43;;;;;;;13.62;100.00;101739.94;5109034;28;20035;-86
2022/10/29 06:24:33;;;;;;;32.27;12.23;;;;;;;13.65;100.00;101747.69;5092226;28;20028;-86
2022/10/29 06:26:58;;;;;;;28.37;13.13;;;;;;;13.66;100.00;101745.84;5109415;28;20024;-86
2022/10/29 06:29:24;;;;;;;28.45;13.05;;;;;;;13.66;100.00;101745.84;5109463;28;20047;-85
2022/10/29 06:31:49;;;;;;;29.27;12.77;;;;;;;13.62;100.00;101729.03;5110489;28;20028;-85
2022/10/29 06:34:15;;;;;;;27.87;12.73;;;;;;;13.61;100.00;101740.16;5108961;28;20022;-85
2022/10/29 06:36:41;;;;;;;28.63;12.23;;;;;;;13.56;100.00;101743.53;5092599;28;20043;-85
2022/10/29 06:39:06;;;;;;;31.10;12.93;;;;;;;13.53;100.00;101745.88;5075665;28;20028;-85
2022/10/29 06:41:31;;;;;;;26.77;13.33;;;;;;;13.47;100.00;101733.91;5109500;28;20102;-85
2022/10/29 06:43:57;;;;;;;33.83;12.83;;;;;;;13.43;100.00;101740.84;5092094;28;20081;-85
2022/10/29 06:46:22;;;;;;;28.23;12.23;;;;;;;13.41;100.00;101746.50;5091551;28;20058;-86
2022/10/29 06:48:48;;;;;;;24.70;12.97;;;;;;;13.43;100.00;101749.03;5109732;28;20043;-86
2022/10/29 06:51:13;;;;;;;30.17;12.77;;;;;;;13.49;100.00;101751.75;5109045;28;20027;-86
2022/10/29 06:53:39;;;;;;;33.10;12.90;;;;;;;13.55;100.00;101746.47;5092289;28;20398;-84
2022/10/29 06:56:04;;;;;;;27.40;13.37;;;;;;;13.63;100.00;101746.25;5109067;28;20052;-85
2022/10/29 06:58:29;;;;;;;31.58;14.30;;;;;;;13.68;100.00;101751.91;5099527;28;20108;-85
2022/10/29 07:00:55;;;;;;;30.43;13.17;;;;;;;13.76;100.00;101750.81;5095579;28;20059;-85
2022/10/29 07:03:22;;;;;;;28.03;12.80;;;;;;;13.81;100.00;101753.75;5078186;28;20493;-85
2022/10/29 07:05:55;;;;;;;29.67;12.23;;;;;;;13.85;100.00;101749.53;5095229;28;20020;-85
2022/10/29 07:08:20;;;;;;;27.35;11.80;;;;;;;13.88;100.00;101756.44;5095258;28;20034;-85
2022/10/29 07:10:50;;;;;;;33.77;12.83;;;;;;;13.90;100.00;101735.25;5078395;28;20028;-85
2022/10/29 07:13:15;;;;;;;25.50;11.70;;;;;;;13.91;100.00;101734.22;5095184;28;20107;-85
2022/10/29 07:15:40;;;;;;;31.33;11.87;;;;;;;13.97;100.00;101728.72;5094389;28;20114;-86
2022/10/29 07:18:07;;;;;;;26.93;12.03;;;;;;;14.03;100.00;101733.28;5094630;28;20490;-85
2022/10/29 07:20:37;;;;;;;22.73;11.43;;;;;;;14.09;100.00;101720.69;5078167;28;20548;-85
2022/10/29 07:23:02;;;;;;;25.45;13.38;;;;;;;14.11;100.00;101715.84;5094237;28;20042;-85
2022/10/29 07:25:29;;;;;;;30.77;14.07;;;;;;;14.16;100.00;101710.56;5094390;28;20019;-85
2022/10/29 07:28:00;;;;;;;29.90;11.60;;;;;;;14.24;100.00;101709.47;5094939;28;20370;-85
2022/10/29 07:30:26;;;;;;;23.45;11.73;;;;;;;14.31;100.00;101712.19;5094831;28;20368;-85
2022/10/29 07:32:51;;;;;;;29.87;11.47;;;;;;;14.37;100.00;101711.28;5077518;28;20027;-84
2022/10/29 07:35:17;;;;;;;24.60;10.97;;;;;;;14.38;100.00;101710.25;5095021;28;20024;-84
2022/10/29 07:37:42;;;;;;;30.93;11.23;;;;;;;14.42;100.00;101713.38;5095291;28;20019;-86
2022/10/29 07:40:11;;;;;;;22.95;10.40;;;;;;;14.43;100.00;101709.59;5095580;28;20024;-85
2022/10/29 07:42:36;;;;;;;24.63;10.93;;;;;;;14.44;100.00;101701.16;5077786;28;20035;-85
2022/10/29 07:45:02;;;;;;;23.83;11.13;;;;;;;14.52;100.00;101710.97;5093378;28;20410;-86
2022/10/29 07:47:30;;;;;;;26.23;10.70;;;;;;;14.56;100.00;101720.41;5077580;28;20348;-86
2022/10/29 07:49:55;;;;;;;22.30;10.73;;;;;;;14.62;100.00;101705.91;5077695;28;20032;-86
2022/10/29 07:52:21;;;;;;;28.00;11.00;;;;;;;14.67;100.00;101708.78;5094092;28;20489;-86
2022/10/29 07:54:46;;;;;;;23.00;10.90;;;;;;;14.73;100.00;101712.53;5060626;28;20027;-85
2022/10/29 07:57:12;;;;;;;24.92;10.88;;;;;;;14.82;100.00;101719.41;5093902;28;20016;-86
2022/10/29 07:59:38;;;;;;;20.33;10.83;;;;;;;14.99;100.00;101711.47;5093964;28;20057;-85
2022/10/29 08:02:03;;;;;;;22.45;11.10;;;;;;;15.14;100.00;101704.84;5094054;28;20020;-87
2022/10/29 08:04:29;;;;;;;23.57;10.57;;;;;;;15.30;100.00;101701.50;5087308;28;20390;-86
2022/10/29 08:06:54;;;;;;;24.63;10.37;;;;;;;15.50;100.00;101715.00;5077337;28;20035;-85
2022/10/29 08:09:19;;;;;;;19.30;9.83;;;;;;;15.70;100.00;101711.19;5089863;28;20414;-86
2022/10/29 08:11:45;;;;;;;23.53;10.33;;;;;;;15.86;100.00;101705.13;5056601;28;20058;-86
2022/10/29 08:14:11;;;;;;;21.33;10.73;;;;;;;16.00;100.00;101705.75;5073719;28;20546;-85
2022/10/29 08:16:37;;;;;;;21.67;10.53;;;;;;;16.07;100.00;101703.78;5055305;28;20056;-86
2022/10/29 08:19:02;;;;;;;20.83;10.27;;;;;;;16.16;100.00;101704.28;5072515;28;20131;-87
2022/10/29 08:21:28;;;;;;;25.60;10.23;;;;;;;16.22;100.00;101702.53;5090033;28;20535;-86
2022/10/29 08:23:53;;;;;;;20.57;9.50;;;;;;;16.26;100.00;101693.63;5090329;28;20032;-85
2022/10/29 08:26:19;;;;;;;20.67;10.00;;;;;;;16.28;100.00;101693.38;5076747;28;20036;-86
2022/10/29 08:28:45;;;;;;;24.90;9.50;;;;;;;16.34;100.00;101695.19;5084143;28;20472;-86
2022/10/29 08:31:10;;;;;;;20.40;9.43;;;;;;;16.41;100.00;101690.44;5072793;28;20468;-85
2022/10/29 08:33:35;;;;;;;20.33;9.67;;;;;;;16.53;100.00;101690.47;5056495;28;20029;-86
2022/10/29 08:36:04;;;;;;;23.53;9.63;;;;;;;16.76;100.00;101694.34;5057121;28;20267;-87
2022/10/29 08:38:29;;;;;;;20.15;8.82;;;;;;;16.94;100.00;101697.00;5074241;28;20032;-86
2022/10/29 08:41:36;;;;;;;15.53;8.70;;;;;;;17.17;100.00;101700.84;5072716;28;20514;-86
2022/10/29 08:44:48;;;;;;;18.52;7.90;;;;;;;17.31;100.00;101701.41;5108840;28;20044;-87
2022/10/29 08:47:19;;;;;;;19.67;8.07;;;;;;;17.43;98.26;101698.66;5074282;28;20059;-86
2022/10/29 08:49:46;;;;;;;16.10;7.63;;;;;;;17.52;97.73;101692.56;5074096;28;20025;-87
2022/10/29 08:52:35;;;;;;;13.43;7.05;;;;;;;17.60;96.39;101691.34;5074037;28;20032;-87
2022/10/29 08:55:21;;;;;;;16.13;6.72;;;;;;;17.69;97.09;101700.88;5073591;28;20044;-87
2022/10/29 08:57:55;;;;;;;14.40;7.00;;;;;;;17.73;94.66;101693.00;5089217;28;20035;-87
2022/10/29 09:00:24;;;;;;;16.53;6.80;;;;;;;17.75;94.23;101684.53;5072560;28;20506;-86
2022/10/29 09:02:55;;;;;;;16.83;6.53;;;;;;;17.90;93.61;101684.03;5072840;28;20075;-87
2022/10/29 09:05:26;;;;;;;16.33;6.82;;;;;;;18.08;92.32;101674.75;5087932;28;20036;-86
2022/10/29 09:08:04;;;;;;;16.25;6.80;;;;;;;18.30;92.22;101674.88;5072562;28;20027;-86
2022/10/29 09:10:35;;;;;;;15.18;6.55;;;;;;;18.55;91.05;101677.25;5073317;28;20472;-86
2022/10/29 09:13:24;;;;;;;14.83;6.23;;;;;;;18.79;91.36;101675.16;5073794;28;20036;-86
2022/10/29 09:15:56;;;;;;;15.27;6.35;;;;;;;18.91;87.79;101675.94;5071982;28;20037;-86
2022/10/29 09:18:45;;;;;;;16.25;6.03;;;;;;;19.04;86.78;101683.00;5071939;28;20052;-86
2022/10/29 09:21:17;;;;;;;20.73;6.40;;;;;;;19.15;86.34;101684.00;5070622;28;20037;-86
2022/10/29 09:23:52;;;;;;;19.17;6.18;;;;;;;19.11;85.05;101689.16;5072014;28;20044;-86
2022/10/29 09:26:32;;;;;;;13.00;6.33;;;;;;;19.01;86.89;101691.75;5072454;28;20391;-86
2022/10/29 09:29:13;;;;;;;14.00;5.80;;;;;;;19.03;86.80;101678.59;5074281;28;20028;-86
2022/10/29 09:31:53;;;;;;;13.25;5.55;;;;;;;19.05;86.92;101661.84;5072377;28;20390;-86
2022/10/29 09:34:44;;;;;;;13.90;6.07;;;;;;;19.06;87.18;101669.00;5073841;28;20085;-86
2022/10/29 09:37:18;;;;;;;16.70;6.05;;;;;;;19.00;85.52;101673.59;5067190;28;20040;-86
2022/10/29 09:39:46;;;;;;;17.60;5.27;;;;;;;19.01;84.64;101660.69;5073973;28;20024;-86
2022/10/29 09:42:32;;;;;;;10.60;4.90;;;;;;;19.18;85.87;101666.16;5072260;28;20413;-86
2022/10/29 09:45:02;;;;;;;12.73;4.82;;;;;;;19.35;83.23;101668.84;5072182;28;20020;-86
2022/10/29 09:47:55;;;;;;;14.85;5.53;;;;;;;19.57;83.70;101666.13;5072924;28;20055;-85
2022/10/29 09:50:39;;;;;;;10.40;5.03;;;;;;;19.93;82.70;101653.63;5073370;28;20036;-86
2022/10/29 09:53:07;;;;;;;13.23;5.23;;;;;;;20.25;78.75;101652.03;5072211;28;20040;-86
2022/10/29 09:55:40;;;;;;;12.50;5.35;;;;;;;20.46;78.42;101639.25;5072107;28;20074;-86
2022/10/29 09:58:11;;;;;;;18.83;5.63;;;;;;;20.73;76.17;101639.22;5072082;28;20025;-86
2022/10/29 10:00:37;;;;;;;14.82;4.38;;;;;;;20.98;74.82;101638.56;5072537;28;20055;-86
2022/10/29 10:03:09;;;;;;;13.23;5.00;;;;;;;21.33;73.13;101639.88;5072578;28;20461;-86
2022/10/29 10:06:01;;;;;;;14.23;5.10;;;;;;;21.44;74.90;101637.16;5072234;28;20476;-86
2022/10/29 10:08:27;;;;;;;14.38;5.25;;;;;;;21.33;72.16;101647.28;5074271;28;20111;-86
2022/10/29 10:10:58;;;;;;;14.70;4.83;;;;;;;21.14;72.98;101642.25;5071671;28;20025;-86
2022/10/29 10:13:29;;;;;;;13.20;4.80;;;;;;;21.07;72.42;101627.84;5073281;28;20043;-86
2022/10/29 10:15:57;;;;;;;11.38;4.90;;;;;;;20.97;72.92;101631.38;5071390;28;20115;-86
2022/10/29 10:18:30;;;;;;;11.70;5.32;;;;;;;20.95;73.43;101633.59;5071837;28;20362;-86
2022/10/29 10:21:23;;;;;;;15.55;4.80;;;;;;;20.98;74.29;101633.03;5071991;28;20086;-86
2022/10/29 10:23:51;;;;;;;11.10;4.80;;;;;;;20.95;73.44;101639.09;5071903;28;20024;-86
2022/10/29 10:26:41;;;;;;;14.07;4.90;;;;;;;21.12;75.15;101633.38;5071630;28;20035;-85
2022/10/29 10:29:19;;;;;;;17.35;5.30;;;;;;;21.21;73.56;101633.72;5073390;28;20507;-86
2022/10/29 10:31:46;;;;;;;15.82;4.35;;;;;;;21.30;71.45;101636.78;5072872;28;20119;-86
2022/10/29 10:34:19;;;;;;;13.15;5.05;;;;;;;21.46;71.81;101623.91;5074515;28;20033;-85
2022/10/29 10:36:52;;;;;;;14.67;4.43;;;;;;;21.62;70.76;101625.63;5076796;28;20037;-86
2022/10/29 10:39:30;;;;;;;13.65;5.30;;;;;;;21.72;70.67;101622.91;5075658;28;20064;-86
2022/10/29 10:41:59;;;;;;;14.68;4.20;;;;;;;21.86;68.50;101625.16;5075519;28;20033;-86
2022/10/29 10:44:25;;;;;;;15.38;4.78;;;;;;;21.83;67.15;101615.47;5075300;28;20039;-86
2022/10/29 10:46:57;;;;;;;15.55;4.07;;;;;;;21.87;65.91;101613.81;5091244;28;20051;-86
2022/10/29 10:49:33;;;;;;;10.90;4.20;;;;;;;22.05;66.28;101617.19;5075201;28;20518;-86
2022/10/29 10:52:01;;;;;;;14.15;4.20;;;;;;;22.62;65.40;101611.69;5076278;28;20024;-86
2022/10/29 10:54:35;;;;;;;9.43;4.18;;;;;;;24.39;61.79;101598.41;5059070;28;20063;-86
2022/10/29 10:57:02;;;;;;;13.00;4.00;;;;;;;26.82;53.08;101590.41;5076162;28;20086;-86
2022/10/29 10:59:37;;;;;;;14.02;4.32;;;;;;;28.58;51.02;101593.69;5075381;28;20032;-86
2022/10/29 11:02:03;;;;;;;11.67;4.07;;;;;;;30.35;41.89;101592.56;5075337;28;20056;-86
2022/10/29 11:04:37;;;;;;;13.48;4.38;;;;;;;31.72;41.20;101595.44;5058440;28;20037;-86
2022/10/29 11:07:07;;;;;;;20.13;4.60;;;;;;;32.24;37.35;101582.91;5075069;28;20062;-86
2022/10/29 11:09:38;;;;;;;13.45;4.70;;;;;;;32.75;36.42;101585.53;5074904;28;20099;-87
2022/10/29 11:12:21;;;;;;;18.58;4.28;;;;;;;33.74;39.01;101582.66;5075860;28;20029;-86
2022/10/29 11:15:13;;;;;;;13.47;4.90;;;;;;;35.59;37.80;101581.34;5075708;28;20036;-87
2022/10/29 11:17:51;;;;;;;14.43;4.70;;;;;;;36.74;32.80;101585.59;5074869;28;20059;-86
2022/10/29 11:20:27;;;;;;;12.05;4.15;;;;;;;37.68;32.35;101570.84;5085340;28;20039;-88
2022/10/29 11:23:16;;;;;;;13.73;5.10;;;;;;;38.54;28.83;101573.00;5094639;28;20276;-85